M I D A S
Marine Information and Data Acquisition System
Tripno 1459 of the Zeeleeuw from 2008-04-16 12:02:27 to 2008-04-16 15:10:35
Back to CruiseResearch ActivitiesStationsMapUnderway DataData graphs

EquipmentUnitsComment
TimeDGPSUTC
LatitudeDGPSDM.mWGS84
LongitudeDGPSDM.mWGS84
HeadingGyrodeg 
SOGDGPSknotsSpeed over ground
COGDGPSdegCourse over ground
DepthEcho soundermeters200 kHz
Missing or incorrect values are displayed as -999
Navigation data collected by the RV Zeeleeuw from 2008-04-16 07:38:16 to 2008-04-16 15:16:52
Time Latitude Longitude Heading SOG COG Depth
2008-04-16 07:39:21 51°13.665 2°55.956 126.8 -999 338 -999
2008-04-16 07:40:21 51°13.665 2°55.956 124.5 0.1 179 -999
2008-04-16 07:41:21 51°13.664 2°55.955 114.4 0.1 284 7.8
2008-04-16 07:42:21 51°13.674 2°55.923 110.5 2.2 293 -999
2008-04-16 07:43:21 51°13.685 2°55.844 94.9 3.2 276 -999
2008-04-16 07:44:21 51°13.686 2°55.769 81.2 2.2 268 -999
2008-04-16 07:45:21 51°13.687 2°55.743 55 0.4 300 13
2008-04-16 07:46:19 51°13.707 2°55.742 4.1 2.9 351 14.5
2008-04-16 07:47:19 51°13.771 2°55.686 329.3 5.1 329 11.9
2008-04-16 07:48:18 51°13.859 2°55.609 334.7 6.9 334 11.9
2008-04-16 07:49:21 51°13.977 2°55.524 336.4 7.4 336 12.3
2008-04-16 07:50:21 51°14.071 2°55.449 334.4 5.5 333 -999
2008-04-16 07:51:21 51°14.15 2°55.384 333.7 5.7 331 -999
2008-04-16 07:52:21 51°14.235 2°55.292 323.1 6.6 320 12.7
2008-04-16 07:53:20 51°14.313 2°55.157 309.8 7.3 308 11.8
2008-04-16 07:54:19 51°14.399 2°55.002 312.8 8.9 315 12.1
2008-04-16 07:55:18 51°14.509 2°54.787 302.4 11.8 305 11.8
2008-04-16 07:56:17 51°14.633 2°54.541 306.9 12.1 309 11.6
2008-04-16 07:57:18 51°14.75 2°54.273 294.9 12.1 296 11.5
2008-04-16 07:58:17 51°14.808 2°53.975 282.2 12 285 11.2
2008-04-16 07:59:17 51°14.848 2°53.664 276.4 12 278 11.5
2008-04-16 08:00:17 51°14.884 2°53.351 280.8 12 282 12
2008-04-16 08:01:17 51°14.886 2°53.038 261.1 11.9 263 12.1
2008-04-16 08:02:17 51°14.893 2°52.722 274.6 12 276 11.6
2008-04-16 08:03:16 51°14.909 2°52.41 272.1 11.9 272 11.9
2008-04-16 08:04:16 51°14.914 2°52.092 269.1 12 270 12.3
2008-04-16 08:05:17 51°14.908 2°51.769 262 11.9 262 12.7
2008-04-16 08:06:16 51°14.866 2°51.466 257.1 11.9 256 12.9
2008-04-16 08:07:17 51°14.822 2°51.154 253.9 11.8 253 13.1
2008-04-16 08:08:16 51°14.758 2°50.865 247.4 11.8 249 13.2
2008-04-16 08:09:16 51°14.667 2°50.682 215.5 6.1 215 13.4
2008-04-16 08:10:16 51°14.604 2°50.622 222.3 3.4 223 13.2
2008-04-16 08:11:17 51°14.577 2°50.555 238.2 2.8 238 13.2
2008-04-16 08:12:16 51°14.555 2°50.493 235.1 2.7 239 13.2
2008-04-16 08:13:16 51°14.534 2°50.43 237.3 2.7 242 13.2
2008-04-16 08:14:16 51°14.511 2°50.367 233.6 2.9 241 13
2008-04-16 08:15:16 51°14.484 2°50.294 242.4 3.3 247 13
2008-04-16 08:16:16 51°14.464 2°50.211 243.8 3.3 249 13
2008-04-16 08:17:17 51°14.444 2°50.132 243 3.1 247 13.1
2008-04-16 08:18:17 51°14.424 2°50.056 243.2 3.1 251 13.1
2008-04-16 08:19:16 51°14.405 2°49.983 243.6 3 246 13.2
2008-04-16 08:20:16 51°14.387 2°49.908 244.8 3 252 13.2
2008-04-16 08:21:16 51°14.369 2°49.834 244.4 2.9 245 13.4
2008-04-16 08:22:17 51°14.351 2°49.76 244.6 2.9 247 13.4
2008-04-16 08:23:17 51°14.334 2°49.688 244.5 2.9 246 13.5
2008-04-16 08:24:16 51°14.316 2°49.618 244 2.9 249 13.6
2008-04-16 08:25:17 51°14.299 2°49.546 243.8 2.9 253 13.4
2008-04-16 08:26:16 51°14.282 2°49.478 243.8 2.8 248 13.5
2008-04-16 08:27:16 51°14.265 2°49.408 244.4 2.8 245 13.6
2008-04-16 08:28:16 51°14.249 2°49.336 244.4 2.9 252 13.6
2008-04-16 08:29:16 51°14.232 2°49.264 244 2.9 249 13.7
2008-04-16 08:30:16 51°14.215 2°49.193 244.4 2.8 245 13.7
2008-04-16 08:31:16 51°14.199 2°49.122 244.6 2.8 248 13.6
2008-04-16 08:32:17 51°14.182 2°49.051 244.1 2.8 247 13.8
2008-04-16 08:33:17 51°14.167 2°48.979 249.7 2.8 255 13.8
2008-04-16 08:34:17 51°14.175 2°48.904 277.2 3 294 13.9
2008-04-16 08:35:16 51°14.209 2°48.84 304.4 3.5 326 13.8
2008-04-16 08:36:16 51°14.267 2°48.831 2.8 3.8 16 14
2008-04-16 08:37:16 51°14.314 2°48.876 33.1 2.8 36 14.1
2008-04-16 08:38:16 51°14.347 2°48.919 34.7 2.3 38 14.1
2008-04-16 08:39:17 51°14.379 2°48.964 41.6 3.6 43 14.2
2008-04-16 08:40:16 51°14.427 2°49.073 65.7 5.7 63 14.2
2008-04-16 08:41:16 51°14.458 2°49.183 79 3.8 68 14.3
2008-04-16 08:42:16 51°14.479 2°49.263 79.1 3 68 14.4
2008-04-16 08:43:17 51°14.502 2°49.327 72.9 2.6 57 14.3
2008-04-16 08:44:16 51°14.528 2°49.383 60.8 2.9 50 14.4
2008-04-16 08:45:16 51°14.556 2°49.448 68.1 3 59 14.4
2008-04-16 08:46:16 51°14.581 2°49.519 77.7 3.1 62 14.5
2008-04-16 08:47:16 51°14.603 2°49.594 81.4 3.1 65 14.5
2008-04-16 08:48:17 51°14.625 2°49.671 82.6 3.1 71 14.6
2008-04-16 08:49:16 51°14.645 2°49.747 82.1 3.1 68 14.6
2008-04-16 08:50:16 51°14.666 2°49.825 82.4 3.2 68 14.6
2008-04-16 08:51:16 51°14.687 2°49.904 81.5 3.2 67 14.6
2008-04-16 08:52:17 51°14.709 2°49.986 81.4 3.3 65 14.6
2008-04-16 08:53:17 51°14.731 2°50.064 80.4 3.2 67 14.6
2008-04-16 08:53:56 51°14.732 2°54.92 126.6 -999 -999 -999
2008-04-16 08:54:32 51°14.759 2°50.163 80.5 3.3 65 14.5
2008-04-16 08:55:31 51°14.78 2°50.242 80.5 3.3 67 14.6
2008-04-16 08:56:32 51°14.802 2°50.324 80.1 3.3 65 14.6
2008-04-16 08:57:31 51°14.824 2°50.402 80.9 3.3 67 14.7
2008-04-16 08:58:32 51°14.846 2°50.483 80.1 3.3 63 14.6
2008-04-16 08:59:32 51°14.867 2°50.564 80.4 3.4 64 14.4
2008-04-16 09:00:32 51°14.889 2°50.645 80.2 3.3 69 14.6
2008-04-16 09:01:32 51°14.91 2°50.726 80.3 3.3 68 14.5
2008-04-16 09:02:31 51°14.931 2°50.807 80.4 3.3 66 14.5
2008-04-16 09:03:32 51°14.952 2°50.89 82 3.3 68 14.5
2008-04-16 09:04:33 51°14.97 2°50.973 88 3.2 71 14.5
2008-04-16 09:05:33 51°14.985 2°51.051 88.2 3 73 14.5
2008-04-16 09:06:33 51°15.002 2°51.127 85.4 3 75 14.6
2008-04-16 09:07:33 51°15.009 2°51.199 119.1 2.4 87 14.4
2008-04-16 09:08:31 51°15.011 2°51.247 135.6 1.6 85 14.4
2008-04-16 09:09:32 51°15.016 2°51.286 142.2 1.3 73 14.4
2008-04-16 09:10:32 51°15.019 2°51.318 148.2 1.6 99 14.5
2008-04-16 09:11:32 51°15.016 2°51.39 98.7 5 88 14.3
2008-04-16 09:12:32 51°15.009 2°51.645 98.6 12.4 97 13.8
2008-04-16 09:13:32 51°14.978 2°51.989 99.3 13.3 98 13.5
2008-04-16 09:14:32 51°14.946 2°52.339 101.3 13.4 100 12.8
2008-04-16 09:15:32 51°14.912 2°52.689 100.2 13.4 99 12.5
2008-04-16 09:16:32 51°14.878 2°53.039 104.7 13.2 105 12.9
2008-04-16 09:17:32 51°14.805 2°53.367 119.6 12.8 120 12.7
2008-04-16 09:18:32 51°14.701 2°53.663 118.8 12.9 117 12.5
2008-04-16 09:19:32 51°14.628 2°53.983 110.2 13.1 109 13.5
2008-04-16 09:20:32 51°14.56 2°54.316 111.6 13.3 111 13.2
2008-04-16 09:21:32 51°14.483 2°54.641 114.2 12.8 113 12.9
2008-04-16 09:22:31 51°14.417 2°54.883 118.7 9.1 114 13.1
2008-04-16 09:23:32 51°14.34 2°55.082 127.9 8.3 128 13.7
2008-04-16 09:24:31 51°14.254 2°55.243 130.8 8.1 134 12.3
2008-04-16 09:25:35 51°14.13 2°55.402 146.2 9.3 152 -999
2008-04-16 09:26:35 51°14.014 2°55.486 152.6 6.6 155 -999
2008-04-16 09:27:35 51°13.915 2°55.56 153.3 6.6 155 -999
2008-04-16 09:28:35 51°13.817 2°55.636 152.4 6.5 153 12.9
2008-04-16 09:29:34 51°13.726 2°55.76 128.5 6.4 128 15.3
2008-04-16 09:30:35 51°13.684 2°55.879 113.9 4.4 114 -999
2008-04-16 09:31:35 51°13.668 2°55.945 110.8 1.4 112 9.2
2008-04-16 09:32:33 51°13.664 2°55.955 122.7 0.2 107 9
2008-04-16 09:33:35 51°13.665 2°55.956 126.2 0.1 52 -999
2008-04-16 09:34:35 51°13.665 2°55.955 125.6 -999 289 -999
2008-04-16 09:35:35 51°13.665 2°55.955 124.9 -999 323 -999
2008-04-16 09:36:35 51°13.665 2°55.955 124.3 -999 295 -999
2008-04-16 09:37:35 51°13.665 2°55.955 124.9 -999 165 -999
2008-04-16 09:38:35 51°13.665 2°55.955 125.8 -999 355 -999
2008-04-16 09:39:35 51°13.665 2°55.955 124.9 -999 346 -999
2008-04-16 09:40:35 51°13.665 2°55.955 124.6 -999 38 -999
2008-04-16 09:41:35 51°13.665 2°55.955 124.4 -999 257 -999
2008-04-16 09:42:35 51°13.665 2°55.956 125.6 -999 123 -999
2008-04-16 09:43:35 51°13.665 2°55.956 126.1 -999 16 -999
2008-04-16 09:44:35 51°13.665 2°55.955 123.1 -999 176 -999
2008-04-16 09:45:36 51°13.665 2°55.955 124.8 0.1 151 -999
2008-04-16 09:46:35 51°13.665 2°55.955 125.9 -999 282 -999
2008-04-16 09:47:35 51°13.665 2°55.955 126.1 -999 229 -999
2008-04-16 09:48:35 51°13.665 2°55.956 125.8 -999 77 -999
2008-04-16 09:49:35 51°13.666 2°55.955 123.2 -999 124 -999
2008-04-16 09:50:35 51°13.666 2°55.955 123.6 -999 61 -999
2008-04-16 09:51:35 51°13.666 2°55.954 123.5 -999 8 -999
2008-04-16 09:52:35 51°13.665 2°55.954 123.6 -999 120 -999
2008-04-16 09:53:35 51°13.665 2°55.955 124.6 -999 353 -999
2008-04-16 09:54:35 51°13.665 2°55.955 124.2 -999 60 -999
2008-04-16 09:55:35 51°13.665 2°55.955 125 -999 85 -999
2008-04-16 09:56:35 51°13.665 2°55.955 124.9 -999 132 -999
2008-04-16 09:57:35 51°13.665 2°55.955 125.5 -999 59 -999
2008-04-16 09:58:35 51°13.667 2°55.956 125.2 -999 109 -999
2008-04-16 09:59:35 51°13.666 2°55.955 124 -999 188 -999
2008-04-16 10:00:35 51°13.666 2°55.956 126.5 -999 296 -999
2008-04-16 10:01:35 51°13.666 2°55.956 126.2 -999 273 -999
2008-04-16 10:02:35 51°13.667 2°55.956 124 -999 304 -999
2008-04-16 10:03:35 51°13.666 2°55.956 125.7 0.1 143 -999
2008-04-16 10:04:35 51°13.666 2°55.956 125.6 -999 204 -999
2008-04-16 10:05:35 51°13.666 2°55.956 125.5 -999 309 -999
2008-04-16 10:06:35 51°13.666 2°55.955 124 -999 309 -999
2008-04-16 10:07:35 51°13.666 2°55.955 123.7 -999 188 -999
2008-04-16 10:08:35 51°13.666 2°55.955 124.8 -999 284 -999
2008-04-16 10:09:35 51°13.665 2°55.955 126.5 0.1 162 -999
2008-04-16 10:10:35 51°13.666 2°55.955 123.7 -999 22 -999
2008-04-16 10:11:35 51°13.665 2°55.953 123.8 -999 52 -999
2008-04-16 10:12:35 51°13.666 2°55.954 123.9 -999 132 -999
2008-04-16 10:13:35 51°13.666 2°55.954 123.9 -999 89 -999
2008-04-16 10:14:35 51°13.666 2°55.954 124.1 -999 185 -999
2008-04-16 10:15:35 51°13.666 2°55.954 124.4 0.1 182 -999
2008-04-16 10:16:35 51°13.666 2°55.954 126.2 -999 164 -999
2008-04-16 10:17:35 51°13.666 2°55.955 125.7 -999 303 -999
2008-04-16 10:18:35 51°13.665 2°55.954 125.5 -999 134 -999
2008-04-16 10:19:35 51°13.665 2°55.954 125.8 -999 327 -999
2008-04-16 10:20:35 51°13.665 2°55.954 125.3 -999 277 -999
2008-04-16 10:21:35 51°13.665 2°55.954 124.5 -999 209 -999
2008-04-16 10:22:35 51°13.665 2°55.954 124.6 -999 353 -999
2008-04-16 10:23:35 51°13.665 2°55.954 124.5 -999 150 -999
2008-04-16 10:24:35 51°13.665 2°55.955 125.8 0.1 187 -999
2008-04-16 10:25:35 51°13.665 2°55.954 126.4 -999 195 -999
2008-04-16 10:26:35 51°13.666 2°55.954 126.1 -999 142 -999
2008-04-16 10:27:35 51°13.666 2°55.953 125.5 0.1 231 -999
2008-04-16 10:28:36 51°13.666 2°55.953 125.3 -999 85 -999
2008-04-16 10:29:35 51°13.666 2°55.954 126.3 -999 295 -999
2008-04-16 10:30:36 51°13.666 2°55.953 124.7 -999 23 -999
2008-04-16 10:31:35 51°13.665 2°55.953 124.2 -999 279 -999
2008-04-16 10:32:36 51°13.665 2°55.953 124.2 -999 188 -999
2008-04-16 10:33:35 51°13.665 2°55.953 124.9 -999 187 -999
2008-04-16 10:34:36 51°13.665 2°55.953 124.7 -999 199 -999
2008-04-16 10:35:35 51°13.665 2°55.953 124.9 -999 99 -999
2008-04-16 10:36:36 51°13.665 2°55.953 125.5 -999 119 -999
2008-04-16 10:37:35 51°13.666 2°55.953 125.7 -999 167 -999
2008-04-16 10:38:36 51°13.666 2°55.953 125.5 -999 207 -999
2008-04-16 10:39:35 51°13.666 2°55.954 126 -999 226 -999
2008-04-16 10:40:36 51°13.666 2°55.954 127.1 -999 124 -999
2008-04-16 10:41:35 51°13.666 2°55.955 127.7 -999 338 -999
2008-04-16 10:42:36 51°13.666 2°55.954 125.9 -999 348 -999
2008-04-16 10:43:35 51°13.666 2°55.955 125.5 -999 335 -999
2008-04-16 10:44:36 51°13.666 2°55.955 125.4 -999 136 -999
2008-04-16 10:45:35 51°13.666 2°55.955 125.5 -999 355 -999
2008-04-16 10:46:36 51°13.666 2°55.955 127.1 -999 158 -999
2008-04-16 10:47:35 51°13.666 2°55.955 127.8 -999 255 -999
2008-04-16 10:48:36 51°13.667 2°55.955 127.4 -999 347 -999
2008-04-16 10:49:35 51°13.667 2°55.955 126.1 -999 332 -999
2008-04-16 10:50:36 51°13.667 2°55.955 125.6 -999 297 -999
2008-04-16 10:51:35 51°13.667 2°55.955 125.9 -999 196 -999
2008-04-16 10:52:36 51°13.667 2°55.955 125.8 -999 65 -999
2008-04-16 10:53:35 51°13.668 2°55.955 126.2 -999 124 -999
2008-04-16 10:54:36 51°13.667 2°55.955 126.2 -999 136 -999
2008-04-16 10:55:35 51°13.667 2°55.955 126.1 -999 134 -999
2008-04-16 10:56:36 51°13.666 2°55.955 125.9 -999 108 -999
2008-04-16 10:57:35 51°13.667 2°55.955 125.3 -999 56 -999
2008-04-16 10:58:36 51°13.667 2°55.955 125.5 -999 186 -999
2008-04-16 10:59:35 51°13.667 2°55.955 126.4 -999 142 -999
2008-04-16 11:00:36 51°13.667 2°55.955 127.6 -999 29 -999
2008-04-16 11:01:35 51°13.666 2°55.955 127.6 -999 333 -999
2008-04-16 11:02:36 51°13.665 2°55.955 127.9 -999 150 -999
2008-04-16 11:03:35 51°13.666 2°55.955 127.8 -999 152 -999
2008-04-16 11:04:36 51°13.665 2°55.954 127.9 -999 55 -999
2008-04-16 11:05:35 51°13.666 2°55.955 127.8 -999 305 -999
2008-04-16 11:06:36 51°13.666 2°55.955 126.5 -999 319 -999
2008-04-16 11:07:35 51°13.667 2°55.955 126 -999 210 -999
2008-04-16 11:08:36 51°13.666 2°55.954 125.7 -999 13 -999
2008-04-16 11:09:36 51°13.666 2°55.954 125.3 -999 245 -999
2008-04-16 11:10:36 51°13.667 2°55.954 126.2 -999 269 -999
2008-04-16 11:11:36 51°13.667 2°55.954 125.5 -999 325 -999
2008-04-16 11:12:36 51°13.666 2°55.954 124.9 -999 233 -999
2008-04-16 11:13:36 51°13.667 2°55.955 125.6 -999 46 -999
2008-04-16 11:14:36 51°13.666 2°55.955 124.6 -999 251 -999
2008-04-16 11:15:36 51°13.666 2°55.954 124.8 -999 159 -999
2008-04-16 11:16:36 51°13.666 2°55.953 124.9 -999 128 -999
2008-04-16 11:17:36 51°13.665 2°55.953 125.6 -999 239 -999
2008-04-16 11:18:35 51°13.665 2°55.953 125.5 -999 188 -999
2008-04-16 11:19:36 51°13.665 2°55.953 125.7 -999 340 -999
2008-04-16 11:20:35 51°13.666 2°55.953 124.6 -999 43 -999
2008-04-16 11:21:36 51°13.665 2°55.954 125.1 -999 72 -999
2008-04-16 11:22:35 51°13.665 2°55.954 127.1 0.1 32 -999
2008-04-16 11:23:36 51°13.665 2°55.954 126.2 -999 226 -999
2008-04-16 11:24:35 51°13.665 2°55.954 125.4 -999 53 -999
2008-04-16 11:25:36 51°13.665 2°55.954 126.2 -999 94 -999
2008-04-16 11:26:36 51°13.665 2°55.955 126.4 -999 4 -999
2008-04-16 11:27:36 51°13.665 2°55.954 125.1 -999 290 -999
2008-04-16 11:28:36 51°13.665 2°55.955 125.8 -999 168 -999
2008-04-16 11:29:36 51°13.665 2°55.955 126.5 -999 38 -999
2008-04-16 11:30:36 51°13.665 2°55.954 127 -999 254 -999
2008-04-16 11:31:36 51°13.665 2°55.954 126.9 -999 212 -999
2008-04-16 11:32:35 51°13.665 2°55.954 127 -999 110 -999
2008-04-16 11:33:36 51°13.665 2°55.954 126.9 -999 193 -999
2008-04-16 11:34:35 51°13.665 2°55.954 126.2 -999 332 -999
2008-04-16 11:35:36 51°13.665 2°55.954 125.1 -999 334 -999
2008-04-16 11:36:35 51°13.665 2°55.954 125.1 -999 132 -999
2008-04-16 11:37:36 51°13.665 2°55.954 125.6 -999 357 -999
2008-04-16 11:38:36 51°13.665 2°55.954 124.8 -999 142 -999
2008-04-16 11:39:36 51°13.665 2°55.954 126.9 -999 306 -999
2008-04-16 11:40:36 51°13.665 2°55.955 126.2 -999 85 -999
2008-04-16 11:41:36 51°13.665 2°55.954 126.5 -999 302 -999
2008-04-16 11:42:36 51°13.665 2°55.954 125.9 -999 91 -999
2008-04-16 11:43:36 51°13.665 2°55.953 125.7 -999 112 -999
2008-04-16 11:44:36 51°13.665 2°55.953 124.8 -999 1 -999
2008-04-16 11:45:36 51°13.665 2°55.954 125.4 -999 249 -999
2008-04-16 11:46:35 51°13.665 2°55.955 126.4 -999 266 -999
2008-04-16 11:47:36 51°13.665 2°55.955 127 -999 93 -999
2008-04-16 11:48:35 51°13.665 2°55.954 126 -999 316 -999
2008-04-16 11:49:36 51°13.665 2°55.954 125 -999 24 -999
2008-04-16 11:50:35 51°13.666 2°55.954 124 -999 311 -999
2008-04-16 11:51:36 51°13.665 2°55.954 124 -999 180 -999
2008-04-16 11:52:35 51°13.665 2°55.954 125.3 -999 239 -999
2008-04-16 11:53:36 51°13.665 2°55.954 125.1 -999 284 -999
2008-04-16 11:54:35 51°13.666 2°55.955 124.7 -999 341 -999
2008-04-16 11:55:36 51°13.665 2°55.953 126.7 0.1 280 -999
2008-04-16 11:56:36 51°13.665 2°55.955 128.7 0.1 63 -999
2008-04-16 11:57:36 51°13.665 2°55.955 127.7 -999 308 8.2
2008-04-16 11:58:35 51°13.665 2°55.955 129.3 -999 82 8.1
2008-04-16 11:59:36 51°13.665 2°55.955 127.8 -999 347 -999
2008-04-16 12:00:35 51°13.665 2°55.955 129 -999 200 -999
2008-04-16 12:01:36 51°13.665 2°55.956 127.7 0.1 33 -999
2008-04-16 12:02:35 51°13.664 2°55.956 115.3 0.1 214 8.1
2008-04-16 12:03:36 51°13.677 2°55.91 114.1 2.7 297 -999
2008-04-16 12:04:35 51°13.693 2°55.819 96.6 4.1 277 -999
2008-04-16 12:05:35 51°13.697 2°55.734 92.2 1.7 271 14.1
2008-04-16 12:06:35 51°13.706 2°55.736 35.8 0.6 248 14.8
2008-04-16 12:07:35 51°13.708 2°55.715 345.6 3.1 337 -999
2008-04-16 12:08:35 51°13.774 2°55.663 336 4.4 334 12.3
2008-04-16 12:09:34 51°13.829 2°55.632 347.8 3 346 11.9
2008-04-16 12:10:34 51°13.869 2°55.628 9.2 2.2 4 -999
2008-04-16 12:11:36 51°13.9 2°55.633 10.2 1.5 5 11.8
2008-04-16 12:12:36 51°13.918 2°55.635 13.7 0.9 8 -999
2008-04-16 12:13:36 51°13.93 2°55.641 16.2 0.7 25 -999
2008-04-16 12:14:36 51°13.938 2°55.646 17.4 0.5 11 12.9
2008-04-16 12:15:36 51°13.947 2°55.65 15.5 0.8 10 12.9
2008-04-16 12:16:36 51°13.961 2°55.651 350.1 0.1 41 -999
2008-04-16 12:17:36 51°13.944 2°55.658 337.1 0.7 170 -999
2008-04-16 12:18:35 51°13.947 2°55.648 329.8 1.2 318 12.9
2008-04-16 12:19:36 51°14.011 2°55.566 319.9 7.7 319 12.7
2008-04-16 12:20:36 51°14.119 2°55.439 326.8 8.3 325 -999
2008-04-16 12:21:36 51°14.23 2°55.308 320.2 8.3 318 -999
2008-04-16 12:22:34 51°14.314 2°55.146 307.2 8.3 304 11.5
2008-04-16 12:23:34 51°14.385 2°54.941 298.8 9.8 296 12
2008-04-16 12:24:33 51°14.415 2°54.661 268.3 12.1 266 11.7
2008-04-16 12:25:32 51°14.371 2°54.35 252.2 12.2 255 10.6
2008-04-16 12:26:32 51°14.324 2°54.037 256.1 12.2 259 10.5
2008-04-16 12:27:32 51°14.271 2°53.725 254.7 12.1 254 10.9
2008-04-16 12:28:32 51°14.223 2°53.412 254.9 12.2 255 11.1
2008-04-16 12:29:32 51°14.17 2°53.102 252.2 12 249 11.7
2008-04-16 12:30:32 51°14.09 2°52.81 245.8 12.1 249 11.9
2008-04-16 12:31:32 51°13.994 2°52.532 236.5 12 238 11.9
2008-04-16 12:32:33 51°13.89 2°52.256 239.4 12 240 12
2008-04-16 12:33:33 51°13.792 2°51.978 239.1 12.1 239 12
2008-04-16 12:34:33 51°13.685 2°51.708 237.5 12 238 12.1
2008-04-16 12:35:33 51°13.583 2°51.431 239.3 12.1 241 12.2
2008-04-16 12:36:33 51°13.479 2°51.158 236.6 12.1 237 12.3
2008-04-16 12:37:33 51°13.375 2°50.884 239.8 12.1 241 12.4
2008-04-16 12:38:33 51°13.269 2°50.611 237.4 12 236 12.5
2008-04-16 12:39:33 51°13.16 2°50.34 237.2 12.3 240 12.5
2008-04-16 12:40:33 51°13.062 2°50.056 241.9 12.2 242 12.6
2008-04-16 12:41:33 51°12.96 2°49.775 238.7 12.2 238 12.7
2008-04-16 12:42:33 51°12.858 2°49.493 240.7 12.4 237 12.8
2008-04-16 12:43:33 51°12.753 2°49.217 238.1 12.2 237 13
2008-04-16 12:44:33 51°12.65 2°48.936 238 12.3 239 13.1
2008-04-16 12:45:33 51°12.552 2°48.653 242.8 12.2 243 13.2
2008-04-16 12:46:33 51°12.458 2°48.363 241.7 12.3 243 13.3
2008-04-16 12:47:33 51°12.363 2°48.075 242.1 12.3 241 13.4
2008-04-16 12:48:33 51°12.275 2°47.78 246 12.3 245 13.5
2008-04-16 12:49:33 51°12.19 2°47.484 245.8 12.2 247 13.6
2008-04-16 12:50:33 51°12.105 2°47.187 246 12.3 246 13.7
2008-04-16 12:51:33 51°12.021 2°46.889 244.4 12.4 248 13.7
2008-04-16 12:52:33 51°11.938 2°46.59 245.6 12.3 246 13.7
2008-04-16 12:53:33 51°11.851 2°46.293 246.1 12.3 245 13.7
2008-04-16 12:54:33 51°11.763 2°45.997 245.5 12.3 244 13.7
2008-04-16 12:55:33 51°11.681 2°45.695 246.7 12.4 246 13.6
2008-04-16 12:56:33 51°11.598 2°45.393 246.2 12.4 247 13.6
2008-04-16 12:57:33 51°11.513 2°45.092 243.5 12.4 244 13.5
2008-04-16 12:58:33 51°11.424 2°44.795 244.3 12.5 245 13.4
2008-04-16 12:59:33 51°11.339 2°44.493 246.3 12.5 247 13.3
2008-04-16 13:00:33 51°11.257 2°44.189 246.7 12.6 246 13.1
2008-04-16 13:01:33 51°11.172 2°43.886 244.5 12.5 244 13
2008-04-16 13:02:33 51°11.088 2°43.582 244.3 12.6 245 12.8
2008-04-16 13:03:33 51°10.998 2°43.283 243.9 12.6 247 12.7
2008-04-16 13:04:33 51°10.913 2°42.979 244.4 12.5 243 12.7
2008-04-16 13:05:33 51°10.829 2°42.675 245.2 12.5 248 12.5
2008-04-16 13:06:33 51°10.74 2°42.374 244.7 12.6 245 12.3
2008-04-16 13:07:33 51°10.653 2°42.07 245.2 12.7 248 12.2
2008-04-16 13:08:33 51°10.571 2°41.762 245.4 12.7 248 12.2
2008-04-16 13:09:33 51°10.487 2°41.456 245 12.5 245 12.1
2008-04-16 13:10:33 51°10.401 2°41.151 245.2 12.6 244 12
2008-04-16 13:11:33 51°10.316 2°40.847 246.3 12.6 245 12
2008-04-16 13:12:33 51°10.233 2°40.539 245.7 12.6 247 12
2008-04-16 13:13:33 51°10.159 2°40.267 248.3 8.2 249 12
2008-04-16 13:14:33 51°10.141 2°40.146 281 1.8 263 12.3
2008-04-16 13:15:33 51°10.133 2°40.13 295.8 0.8 225 12.1
2008-04-16 13:16:33 51°10.124 2°40.114 289.6 0.8 235 12.1
2008-04-16 13:17:33 51°10.116 2°40.094 287.8 0.8 241 12
2008-04-16 13:18:33 51°10.107 2°40.074 290.2 0.9 239 12
2008-04-16 13:19:33 51°10.099 2°40.053 295.2 0.9 245 12
2008-04-16 13:20:33 51°10.092 2°40.031 300.1 0.9 244 11.9
2008-04-16 13:21:33 51°10.085 2°40.009 305.1 0.9 247 11.9
2008-04-16 13:22:33 51°10.077 2°39.986 306.9 1 241 11.9
2008-04-16 13:23:33 51°10.069 2°39.961 307.6 1.5 270 11.9
2008-04-16 13:24:33 51°10.094 2°39.919 352.3 2.5 336 12.1
2008-04-16 13:25:33 51°10.134 2°39.938 53 2.8 57 12.4
2008-04-16 13:26:33 51°10.116 2°40.006 136.4 3.5 154 12.1
2008-04-16 13:27:33 51°10.052 2°40.005 179.2 4.2 189 11.6
2008-04-16 13:28:33 51°9.993 2°39.949 217 4 225 11.3
2008-04-16 13:29:33 51°9.952 2°39.873 222.7 3.6 232 11.2
2008-04-16 13:30:33 51°9.915 2°39.803 224.2 3.4 232 11.1
2008-04-16 13:31:33 51°9.885 2°39.729 234.7 3.3 240 11.1
2008-04-16 13:32:33 51°9.859 2°39.654 236.2 3.2 242 10.9
2008-04-16 13:33:33 51°9.832 2°39.58 235.5 3.2 239 10.9
2008-04-16 13:34:33 51°9.805 2°39.506 235.3 3.2 238 10.9
2008-04-16 13:35:33 51°9.778 2°39.431 237.9 3.2 239 10.8
2008-04-16 13:36:33 51°9.753 2°39.355 240.4 3.2 243 10.8
2008-04-16 13:37:33 51°9.729 2°39.279 240.1 3.2 240 10.8
2008-04-16 13:38:33 51°9.704 2°39.203 240.2 3.2 245 10.8
2008-04-16 13:39:33 51°9.679 2°39.128 240.1 3.3 240 10.9
2008-04-16 13:40:33 51°9.657 2°39.049 246.7 3.3 250 10.9
2008-04-16 13:41:33 51°9.638 2°38.97 250.3 3.2 250 10.9
2008-04-16 13:42:33 51°9.62 2°38.89 251.8 3.2 254 11
2008-04-16 13:43:33 51°9.602 2°38.81 251 3.2 253 11
2008-04-16 13:44:33 51°9.583 2°38.731 247.4 3.3 246 11
2008-04-16 13:45:33 51°9.561 2°38.652 246.1 3.3 247 11
2008-04-16 13:46:33 51°9.541 2°38.573 247.9 3.2 250 11
2008-04-16 13:47:33 51°9.521 2°38.493 249.6 3.2 250 11
2008-04-16 13:48:33 51°9.503 2°38.414 251 3.2 252 11
2008-04-16 13:49:33 51°9.484 2°38.335 251.2 3.2 249 10.9
2008-04-16 13:50:33 51°9.466 2°38.255 250.3 3.2 250 10.9
2008-04-16 13:51:33 51°9.447 2°38.175 251.1 3.2 251 11
2008-04-16 13:52:33 51°9.431 2°38.094 256.5 3.2 257 10.9
2008-04-16 13:53:33 51°9.417 2°38.014 258.7 3 257 11
2008-04-16 13:54:33 51°9.404 2°37.937 260.3 3 253 11
2008-04-16 13:55:33 51°9.398 2°37.862 282.4 2.8 266 11.1
2008-04-16 13:56:33 51°9.404 2°37.797 311.2 2.3 279 11.2
2008-04-16 13:57:33 51°9.406 2°37.743 313.5 1.9 271 11.3
2008-04-16 13:58:33 51°9.405 2°37.696 312.7 1.6 268 11.5
2008-04-16 13:59:33 51°9.402 2°37.653 316.9 1.4 263 11.6
2008-04-16 14:00:33 51°9.398 2°37.61 319.3 2 274 11.8
2008-04-16 14:01:33 51°9.422 2°37.564 0.7 2.6 337 12
2008-04-16 14:02:33 51°9.459 2°37.597 56.6 4.3 56 12.3
2008-04-16 14:03:33 51°9.499 2°37.775 68.9 8.9 71 12
2008-04-16 14:04:33 51°9.561 2°38.032 66.8 11 68 11.6
2008-04-16 14:05:33 51°9.628 2°38.304 67.1 11 69 11.5
2008-04-16 14:06:33 51°9.69 2°38.579 68.6 11 70 11.3
2008-04-16 14:07:33 51°9.758 2°38.849 64.1 11 65 11.2
2008-04-16 14:08:33 51°9.836 2°39.111 64.4 10.9 64 11.2
2008-04-16 14:09:33 51°9.905 2°39.378 66.7 11 68 11.1
2008-04-16 14:10:33 51°9.978 2°39.644 64.4 10.9 65 10.9
2008-04-16 14:11:33 51°10.054 2°39.908 64.4 11 64 11
2008-04-16 14:12:33 51°10.129 2°40.172 64.2 11 67 11.2
2008-04-16 14:13:33 51°10.201 2°40.439 67.4 11 69 11
2008-04-16 14:14:33 51°10.273 2°40.707 64.1 11 66 11.2
2008-04-16 14:15:33 51°10.348 2°40.972 64.8 11 66 11.2
2008-04-16 14:16:33 51°10.422 2°41.238 64.7 11 66 11.2
2008-04-16 14:17:33 51°10.497 2°41.503 64.9 11 67 11.2
2008-04-16 14:18:33 51°10.563 2°41.773 69.2 11 71 11.3
2008-04-16 14:19:33 51°10.632 2°42.041 64.8 11 66 11.2
2008-04-16 14:20:33 51°10.706 2°42.307 65.1 10.9 65 11.3
2008-04-16 14:21:33 51°10.78 2°42.571 65.4 11 66 11.3
2008-04-16 14:22:33 51°10.851 2°42.838 67.4 11 69 11.4
2008-04-16 14:23:33 51°10.923 2°43.104 64.5 10.9 66 11.5
2008-04-16 14:24:33 51°10.998 2°43.366 65.1 10.9 66 11.6
2008-04-16 14:25:33 51°11.072 2°43.629 65.3 10.9 67 11.6
2008-04-16 14:26:33 51°11.141 2°43.896 66.8 10.9 68 11.8
2008-04-16 14:27:33 51°11.211 2°44.164 66.7 10.9 68 11.8
2008-04-16 14:28:33 51°11.282 2°44.431 66.3 10.9 68 11.9
2008-04-16 14:29:33 51°11.357 2°44.693 63.8 10.8 65 12
2008-04-16 14:30:33 51°11.434 2°44.954 64.2 10.9 65 12.1
2008-04-16 14:31:33 51°11.508 2°45.216 64.8 10.8 66 12.1
2008-04-16 14:32:33 51°11.583 2°45.478 65.3 10.9 65 12.2
2008-04-16 14:33:33 51°11.657 2°45.74 65.1 10.8 66 12.3
2008-04-16 14:34:33 51°11.732 2°46.002 65.1 10.8 66 12.4
2008-04-16 14:35:33 51°11.805 2°46.264 65.2 10.8 66 12.4
2008-04-16 14:36:33 51°11.878 2°46.526 65.2 10.8 67 12.4
2008-04-16 14:37:33 51°11.952 2°46.786 65.1 10.8 65 12.3
2008-04-16 14:38:33 51°12.025 2°47.046 65.2 10.7 66 12.2
2008-04-16 14:39:33 51°12.101 2°47.305 62.4 10.8 63 12.2
2008-04-16 14:40:33 51°12.184 2°47.558 62 10.8 63 12.1
2008-04-16 14:41:33 51°12.268 2°47.811 62.3 10.9 62 12
2008-04-16 14:42:33 51°12.355 2°48.062 58.7 10.8 58 11.9
2008-04-16 14:43:33 51°12.445 2°48.312 61.1 10.8 60 11.8
2008-04-16 14:44:33 51°12.539 2°48.556 58.7 10.8 57 11.8
2008-04-16 14:45:33 51°12.627 2°48.805 62.1 10.8 62 11.6
2008-04-16 14:46:33 51°12.715 2°49.053 59.2 10.7 60 11.5
2008-04-16 14:47:33 51°12.805 2°49.297 60.4 10.7 60 11.4
2008-04-16 14:48:33 51°12.896 2°49.54 59.6 10.6 60 11.2
2008-04-16 14:49:33 51°12.986 2°49.783 59.8 10.6 59 11.1
2008-04-16 14:50:33 51°13.076 2°50.025 60.1 10.6 60 10.9
2008-04-16 14:51:33 51°13.165 2°50.267 59.7 10.6 59 10.9
2008-04-16 14:52:33 51°13.254 2°50.509 59.8 10.6 60 10.8
2008-04-16 14:53:33 51°13.343 2°50.751 59.6 10.6 60 10.8
2008-04-16 14:54:33 51°13.432 2°50.993 60.1 10.6 60 10.6
2008-04-16 14:55:33 51°13.52 2°51.234 60.7 10.4 58 10.6
2008-04-16 14:56:33 51°13.605 2°51.472 60.6 10.3 61 10.4
2008-04-16 14:57:33 51°13.69 2°51.713 60.3 10.4 60 10.4
2008-04-16 14:58:33 51°13.77 2°51.956 62.8 10.4 62 10.2
2008-04-16 14:59:33 51°13.855 2°52.194 60.5 10.4 61 10.1
2008-04-16 15:00:33 51°13.937 2°52.436 61.9 10.4 63 10.1
2008-04-16 15:01:33 51°14.019 2°52.679 62 10.3 62 10.2
2008-04-16 15:02:33 51°14.1 2°52.922 62 10.4 62 10
2008-04-16 15:03:33 51°14.18 2°53.168 63.6 10.4 64 9.7
2008-04-16 15:04:33 51°14.251 2°53.417 68.1 10.1 70 9.1
2008-04-16 15:05:33 51°14.296 2°53.683 75.9 10.5 79 9
2008-04-16 15:06:33 51°14.329 2°53.958 77.5 10.5 79 8.7
2008-04-16 15:07:33 51°14.354 2°54.234 78.1 10.5 81 8.4
2008-04-16 15:08:33 51°14.387 2°54.509 76.1 10.2 80 8.9
2008-04-16 15:09:33 51°14.396 2°54.761 91.2 9.1 96 9.5
2008-04-16 15:10:33 51°14.365 2°55.002 104.2 9.4 108 9.3
2008-04-16 15:11:33 51°14.285 2°55.212 128.7 9.1 132 9.2
2008-04-16 15:12:37 51°14.172 2°55.366 144.7 7.6 145 -999
2008-04-16 15:13:37 51°14.072 2°55.455 154.5 6.2 155 -999
2008-04-16 15:14:37 51°13.984 2°55.516 155.7 5.6 156 -999
2008-04-16 15:15:37 51°13.9 2°55.575 155.3 5.4 157 -999
2008-04-16 15:16:37 51°13.824 2°55.63 153.3 4.8 155 -999